Ballico, CA (95303)

12:15 PM PDT on September 01, 2014 (GMT -0700)
Ballico Weather | Change Station
CLOSE
Current Station
Personal Weather Station
Location: Ballico, CA
Elevation: 164 ft
Nearby Weather Stations

Elev 164 ft 37.43 °N, 120.72 °W | Updated 3 seconds ago

Clear
Clear
86.3 °F
Feels Like 86 °F
N
4.0
Wind Variable Wind from NW
Gusts 5.0 mph

Today
High -- | Low -- °F
--% Chance of Precip.
Yesterday
High -- | Low -- °F
Precip. -- in
6:33 AM 7:31 PM
Waxing Crescent, 43% visible
Pressure 29.82 in
Visibility 10.0 miles
Clouds Clear
Heat Index 86 °F
Dew Point 58 °F
Humidity 39%
Rainfall 0.00 in
Snow Depth Not available.
UV 9 out of 12
Pollen 9.20 out of 12
Air Quality Not available.
Flu Activity Not available.
METAR KMER 011845Z 34006KT 10SM SKC 32/11 A2982

More Conditions Fewer Conditions

Pressure 29.82 in
Visibility 10.0 miles
Clouds Clear
Heat Index 86 °F
Dew Point 58 °F
Humidity 39%
Rainfall 0.00 in
Snow Depth Not available.
UV 9 out of 12
Pollen 9.20 out of 12
Air Quality Not available.
Flu Activity Not available.
METAR KMER 011845Z 34006KT 10SM SKC 32/11 A2982

More Conditions Fewer Conditions

10-Day Weather Forecast

Almanac

Astronomy

Sep. 01, 2014 Rise Set
Actual Time 6:33 AM PDT 7:31 PM PDT
Civil Twilight 6:06 AM PDT 7:58 PM PDT
Nautical Twilight 5:34 AM PDT 8:29 PM PDT
Astronomical Twilight 5:01 AM PDT 9:02 PM PDT
Moon 1:15 PM PDT 11:45 PM PDT
Length of Visible Light 13h 51m
Length of Day
12h 58m
Tomorrow will be 2m 18s shorter.
Waxing Crescent, 43% of the Moon is Illuminated
Today
Waxing Crescent
Sep 2
First Quarter
Sep 8
Full
Sep 15
Last Quarter
Sep 24
New

Today's Extremes

State Highs State Lows

Community

WunderPhotos

Upload Photos

1,749,373 photos uploaded!

WunderBlogs® & News

Nearby

Air Quality

  Air Quality AQ Index Pollutant
Monday Good
OZONE
Tuesday Moderate
OZONE
Wednesday Moderate
OZONE
Thursday Moderate
OZONE
Friday Good
OZONE

Snow Depth

Station Depth Elevation
Leavitt Meadows 0 in 7200 ft
Blue Lakes 0 in 8000 ft
Forestdale Creek 0 in 8029 ft
Rubicon #2 0 in 7500 ft
Adin Mountain 1 in 6200 ft

Earthquake Activity

City Distance Mag. Time & Date
Gilroy, California 53 miles 3.5 9:10 AM PDT
2014-09-01
Green Valley, California 97 miles 2.5 6:37 AM PDT
2014-08-31
Napa, California 105 miles 3.2 1:56 AM PDT
2014-08-31
Gonzales, California 64 miles 2.7 9:48 PM PDT
2014-08-30
Minimum magnitude displayed is 2.5.

Coastal Water Temperatures

Place Temperature
No Stations Reporting

Nearby Weather Stations